sensor_id;sensor_type;location;lat;lon;timestamp;P1;durP1;ratioP1;P2;durP2;ratioP2
6111;SDS011;3086;48.802;9.394;2024-02-26T00:01:11;2.43;;;2.30;;
6111;SDS011;3086;48.802;9.394;2024-02-26T00:04:33;2.90;;;2.60;;
6111;SDS011;3086;48.802;9.394;2024-02-26T00:07:54;2.63;;;2.43;;
6111;SDS011;3086;48.802;9.394;2024-02-26T00:11:17;2.67;;;2.47;;
6111;SDS011;3086;48.802;9.394;2024-02-26T00:14:39;2.70;;;2.50;;
6111;SDS011;3086;48.802;9.394;2024-02-26T00:18:01;2.87;;;2.57;;
6111;SDS011;3086;48.802;9.394;2024-02-26T00:21:22;2.63;;;2.43;;
6111;SDS011;3086;48.802;9.394;2024-02-26T00:24:44;2.90;;;2.70;;
6111;SDS011;3086;48.802;9.394;2024-02-26T00:28:07;2.20;;;2.10;;
6111;SDS011;3086;48.802;9.394;2024-02-26T00:31:28;2.53;;;2.33;;
6111;SDS011;3086;48.802;9.394;2024-02-26T00:34:50;2.90;;;2.60;;
6111;SDS011;3086;48.802;9.394;2024-02-26T00:38:11;3.80;;;2.53;;
6111;SDS011;3086;48.802;9.394;2024-02-26T00:41:33;2.87;;;2.50;;
6111;SDS011;3086;48.802;9.394;2024-02-26T00:45:00;2.47;;;2.37;;
6111;SDS011;3086;48.802;9.394;2024-02-26T00:48:21;2.70;;;2.43;;
6111;SDS011;3086;48.802;9.394;2024-02-26T00:51:45;2.33;;;2.20;;
6111;SDS011;3086;48.802;9.394;2024-02-26T00:55:07;3.10;;;2.80;;
6111;SDS011;3086;48.802;9.394;2024-02-26T00:58:29;4.70;;;2.67;;
6111;SDS011;3086;48.802;9.394;2024-02-26T01:01:51;3.43;;;2.60;;
6111;SDS011;3086;48.802;9.394;2024-02-26T01:05:13;2.87;;;2.63;;
6111;SDS011;3086;48.802;9.394;2024-02-26T01:08:36;3.53;;;2.70;;
6111;SDS011;3086;48.802;9.394;2024-02-26T01:11:59;2.60;;;2.40;;
6111;SDS011;3086;48.802;9.394;2024-02-26T01:15:22;2.70;;;2.50;;
6111;SDS011;3086;48.802;9.394;2024-02-26T01:18:45;3.87;;;2.80;;
6111;SDS011;3086;48.802;9.394;2024-02-26T01:22:07;3.53;;;2.40;;
6111;SDS011;3086;48.802;9.394;2024-02-26T01:25:28;2.83;;;2.63;;
6111;SDS011;3086;48.802;9.394;2024-02-26T01:28:50;3.60;;;2.70;;
6111;SDS011;3086;48.802;9.394;2024-02-26T01:32:12;2.50;;;2.30;;
6111;SDS011;3086;48.802;9.394;2024-02-26T01:35:34;2.60;;;2.40;;
6111;SDS011;3086;48.802;9.394;2024-02-26T01:38:56;2.63;;;2.43;;
6111;SDS011;3086;48.802;9.394;2024-02-26T01:42:17;2.30;;;2.20;;
6111;SDS011;3086;48.802;9.394;2024-02-26T01:45:39;2.70;;;2.30;;
6111;SDS011;3086;48.802;9.394;2024-02-26T01:49:01;2.60;;;2.40;;
6111;SDS011;3086;48.802;9.394;2024-02-26T01:52:24;2.63;;;2.30;;
6111;SDS011;3086;48.802;9.394;2024-02-26T01:55:46;3.87;;;2.30;;
6111;SDS011;3086;48.802;9.394;2024-02-26T01:59:07;2.30;;;2.20;;
6111;SDS011;3086;48.802;9.394;2024-02-26T02:02:29;2.47;;;2.27;;
6111;SDS011;3086;48.802;9.394;2024-02-26T02:05:51;2.83;;;2.60;;
6111;SDS011;3086;48.802;9.394;2024-02-26T02:09:14;4.53;;;2.47;;
6111;SDS011;3086;48.802;9.394;2024-02-26T02:12:36;2.33;;;2.10;;
6111;SDS011;3086;48.802;9.394;2024-02-26T02:15:59;3.23;;;2.60;;
6111;SDS011;3086;48.802;9.394;2024-02-26T02:19:21;2.50;;;2.30;;
6111;SDS011;3086;48.802;9.394;2024-02-26T02:22:44;2.30;;;2.13;;
6111;SDS011;3086;48.802;9.394;2024-02-26T02:26:06;2.10;;;2.00;;
6111;SDS011;3086;48.802;9.394;2024-02-26T02:29:28;3.67;;;2.47;;
6111;SDS011;3086;48.802;9.394;2024-02-26T02:32:49;2.53;;;2.10;;
6111;SDS011;3086;48.802;9.394;2024-02-26T02:36:11;2.50;;;2.30;;
6111;SDS011;3086;48.802;9.394;2024-02-26T02:39:33;3.03;;;2.73;;
6111;SDS011;3086;48.802;9.394;2024-02-26T02:42:55;3.00;;;2.80;;
6111;SDS011;3086;48.802;9.394;2024-02-26T02:46:16;2.60;;;2.40;;
6111;SDS011;3086;48.802;9.394;2024-02-26T02:49:38;2.63;;;2.40;;
6111;SDS011;3086;48.802;9.394;2024-02-26T02:52:59;2.53;;;2.33;;
6111;SDS011;3086;48.802;9.394;2024-02-26T02:56:23;2.50;;;2.30;;
6111;SDS011;3086;48.802;9.394;2024-02-26T02:59:45;4.30;;;2.40;;
6111;SDS011;3086;48.802;9.394;2024-02-26T03:03:06;3.83;;;3.07;;
6111;SDS011;3086;48.802;9.394;2024-02-26T03:06:28;3.70;;;3.40;;
6111;SDS011;3086;48.802;9.394;2024-02-26T03:09:49;4.40;;;2.47;;
6111;SDS011;3086;48.802;9.394;2024-02-26T03:13:12;5.70;;;4.97;;
6111;SDS011;3086;48.802;9.394;2024-02-26T03:16:34;3.17;;;2.87;;
6111;SDS011;3086;48.802;9.394;2024-02-26T03:19:55;3.27;;;2.97;;
6111;SDS011;3086;48.802;9.394;2024-02-26T03:23:17;3.37;;;3.07;;
6111;SDS011;3086;48.802;9.394;2024-02-26T03:26:39;2.40;;;2.30;;
6111;SDS011;3086;48.802;9.394;2024-02-26T03:30:02;2.53;;;2.40;;
6111;SDS011;3086;48.802;9.394;2024-02-26T03:33:24;2.20;;;2.10;;
6111;SDS011;3086;48.802;9.394;2024-02-26T03:36:46;2.80;;;2.60;;
6111;SDS011;3086;48.802;9.394;2024-02-26T03:40:07;3.10;;;2.73;;
6111;SDS011;3086;48.802;9.394;2024-02-26T03:43:29;3.13;;;2.67;;
6111;SDS011;3086;48.802;9.394;2024-02-26T03:46:53;2.90;;;2.70;;
6111;SDS011;3086;48.802;9.394;2024-02-26T03:50:15;3.47;;;3.13;;
6111;SDS011;3086;48.802;9.394;2024-02-26T03:53:37;3.17;;;2.87;;
6111;SDS011;3086;48.802;9.394;2024-02-26T03:56:58;2.60;;;2.40;;
6111;SDS011;3086;48.802;9.394;2024-02-26T04:00:20;2.80;;;2.60;;
6111;SDS011;3086;48.802;9.394;2024-02-26T04:03:43;3.00;;;2.80;;
6111;SDS011;3086;48.802;9.394;2024-02-26T04:07:05;3.60;;;2.50;;
6111;SDS011;3086;48.802;9.394;2024-02-26T04:10:27;2.83;;;2.53;;
6111;SDS011;3086;48.802;9.394;2024-02-26T04:13:48;3.57;;;3.13;;
6111;SDS011;3086;48.802;9.394;2024-02-26T04:17:12;3.87;;;2.80;;
6111;SDS011;3086;48.802;9.394;2024-02-26T04:20:35;3.30;;;3.00;;
6111;SDS011;3086;48.802;9.394;2024-02-26T04:23:56;2.57;;;2.40;;
6111;SDS011;3086;48.802;9.394;2024-02-26T04:27:21;2.60;;;2.40;;
6111;SDS011;3086;48.802;9.394;2024-02-26T04:30:43;2.57;;;2.37;;
6111;SDS011;3086;48.802;9.394;2024-02-26T04:34:04;3.20;;;3.00;;
6111;SDS011;3086;48.802;9.394;2024-02-26T04:37:27;2.90;;;2.70;;
6111;SDS011;3086;48.802;9.394;2024-02-26T04:40:50;2.70;;;2.50;;
6111;SDS011;3086;48.802;9.394;2024-02-26T04:44:12;3.40;;;3.10;;
6111;SDS011;3086;48.802;9.394;2024-02-26T04:47:33;3.33;;;3.03;;
6111;SDS011;3086;48.802;9.394;2024-02-26T04:50:55;2.87;;;2.67;;
6111;SDS011;3086;48.802;9.394;2024-02-26T04:54:18;2.60;;;2.40;;
6111;SDS011;3086;48.802;9.394;2024-02-26T04:57:39;3.43;;;2.67;;
6111;SDS011;3086;48.802;9.394;2024-02-26T05:01:01;3.07;;;2.87;;
6111;SDS011;3086;48.802;9.394;2024-02-26T05:04:23;3.00;;;2.70;;
6111;SDS011;3086;48.802;9.394;2024-02-26T05:07:45;2.60;;;2.40;;
6111;SDS011;3086;48.802;9.394;2024-02-26T05:11:07;2.73;;;2.50;;
6111;SDS011;3086;48.802;9.394;2024-02-26T05:14:29;2.77;;;2.57;;
6111;SDS011;3086;48.802;9.394;2024-02-26T05:17:50;2.77;;;2.57;;
6111;SDS011;3086;48.802;9.394;2024-02-26T05:21:12;3.70;;;2.77;;
6111;SDS011;3086;48.802;9.394;2024-02-26T05:24:34;4.17;;;2.87;;
6111;SDS011;3086;48.802;9.394;2024-02-26T05:28:00;2.50;;;2.30;;
6111;SDS011;3086;48.802;9.394;2024-02-26T05:31:21;4.17;;;3.00;;
6111;SDS011;3086;48.802;9.394;2024-02-26T05:34:43;3.83;;;2.90;;
6111;SDS011;3086;48.802;9.394;2024-02-26T05:38:07;2.53;;;2.33;;
6111;SDS011;3086;48.802;9.394;2024-02-26T05:41:28;3.10;;;2.40;;
6111;SDS011;3086;48.802;9.394;2024-02-26T05:44:51;3.27;;;2.43;;
6111;SDS011;3086;48.802;9.394;2024-02-26T05:48:13;3.20;;;2.53;;
6111;SDS011;3086;48.802;9.394;2024-02-26T05:51:34;2.83;;;2.53;;
6111;SDS011;3086;48.802;9.394;2024-02-26T05:54:56;5.40;;;3.10;;
6111;SDS011;3086;48.802;9.394;2024-02-26T05:58:17;3.73;;;2.97;;
6111;SDS011;3086;48.802;9.394;2024-02-26T06:01:40;3.30;;;3.00;;
6111;SDS011;3086;48.802;9.394;2024-02-26T06:05:02;5.47;;;3.90;;
6111;SDS011;3086;48.802;9.394;2024-02-26T06:08:24;3.73;;;3.33;;
6111;SDS011;3086;48.802;9.394;2024-02-26T06:11:45;3.40;;;3.10;;
6111;SDS011;3086;48.802;9.394;2024-02-26T06:15:07;4.00;;;2.83;;
6111;SDS011;3086;48.802;9.394;2024-02-26T06:18:30;5.17;;;3.70;;
6111;SDS011;3086;48.802;9.394;2024-02-26T06:21:52;4.00;;;3.43;;
6111;SDS011;3086;48.802;9.394;2024-02-26T06:25:14;4.70;;;3.70;;
6111;SDS011;3086;48.802;9.394;2024-02-26T06:28:36;3.17;;;2.97;;
6111;SDS011;3086;48.802;9.394;2024-02-26T06:32:00;3.60;;;3.30;;
6111;SDS011;3086;48.802;9.394;2024-02-26T06:35:23;4.57;;;3.23;;
6111;SDS011;3086;48.802;9.394;2024-02-26T06:38:44;4.50;;;3.70;;
6111;SDS011;3086;48.802;9.394;2024-02-26T06:42:06;3.57;;;3.10;;
6111;SDS011;3086;48.802;9.394;2024-02-26T06:45:28;3.37;;;3.07;;
6111;SDS011;3086;48.802;9.394;2024-02-26T06:48:49;3.47;;;3.10;;
6111;SDS011;3086;48.802;9.394;2024-02-26T06:52:13;4.77;;;2.90;;
6111;SDS011;3086;48.802;9.394;2024-02-26T06:55:35;5.17;;;3.43;;
6111;SDS011;3086;48.802;9.394;2024-02-26T06:58:57;4.77;;;3.90;;
6111;SDS011;3086;48.802;9.394;2024-02-26T07:02:19;7.33;;;5.60;;
6111;SDS011;3086;48.802;9.394;2024-02-26T07:05:42;6.53;;;4.40;;
6111;SDS011;3086;48.802;9.394;2024-02-26T07:09:17;4.97;;;4.10;;
6111;SDS011;3086;48.802;9.394;2024-02-26T07:12:39;5.37;;;3.97;;
6111;SDS011;3086;48.802;9.394;2024-02-26T07:16:01;4.70;;;3.60;;
6111;SDS011;3086;48.802;9.394;2024-02-26T07:19:22;4.83;;;4.33;;
6111;SDS011;3086;48.802;9.394;2024-02-26T07:22:44;6.33;;;3.37;;
6111;SDS011;3086;48.802;9.394;2024-02-26T07:26:07;4.87;;;4.00;;
6111;SDS011;3086;48.802;9.394;2024-02-26T07:29:29;3.30;;;2.70;;
6111;SDS011;3086;48.802;9.394;2024-02-26T07:32:50;3.03;;;2.83;;
6111;SDS011;3086;48.802;9.394;2024-02-26T07:36:15;3.97;;;3.13;;
6111;SDS011;3086;48.802;9.394;2024-02-26T07:39:36;3.50;;;3.20;;
6111;SDS011;3086;48.802;9.394;2024-02-26T07:43:26;3.20;;;2.90;;
6111;SDS011;3086;48.802;9.394;2024-02-26T07:46:48;3.33;;;3.03;;
6111;SDS011;3086;48.802;9.394;2024-02-26T07:50:10;4.37;;;3.50;;
6111;SDS011;3086;48.802;9.394;2024-02-26T07:53:34;3.27;;;3.07;;
6111;SDS011;3086;48.802;9.394;2024-02-26T07:56:55;6.40;;;3.20;;
6111;SDS011;3086;48.802;9.394;2024-02-26T08:00:19;3.70;;;3.40;;
6111;SDS011;3086;48.802;9.394;2024-02-26T08:03:41;3.53;;;3.23;;
6111;SDS011;3086;48.802;9.394;2024-02-26T08:07:02;15.20;;;10.47;;
6111;SDS011;3086;48.802;9.394;2024-02-26T08:10:24;5.53;;;4.17;;
6111;SDS011;3086;48.802;9.394;2024-02-26T08:13:45;5.63;;;4.47;;
6111;SDS011;3086;48.802;9.394;2024-02-26T08:17:08;4.63;;;4.20;;
6111;SDS011;3086;48.802;9.394;2024-02-26T08:20:30;5.27;;;4.20;;
6111;SDS011;3086;48.802;9.394;2024-02-26T08:23:52;6.93;;;5.90;;
6111;SDS011;3086;48.802;9.394;2024-02-26T08:27:13;6.90;;;5.27;;
6111;SDS011;3086;48.802;9.394;2024-02-26T08:30:35;7.93;;;4.77;;
6111;SDS011;3086;48.802;9.394;2024-02-26T08:33:59;5.20;;;4.10;;
6111;SDS011;3086;48.802;9.394;2024-02-26T08:37:27;5.73;;;4.23;;
6111;SDS011;3086;48.802;9.394;2024-02-26T08:40:55;4.30;;;3.90;;
6111;SDS011;3086;48.802;9.394;2024-02-26T08:44:20;4.63;;;3.70;;
6111;SDS011;3086;48.802;9.394;2024-02-26T08:47:51;4.47;;;3.80;;
6111;SDS011;3086;48.802;9.394;2024-02-26T08:51:20;5.20;;;3.53;;
6111;SDS011;3086;48.802;9.394;2024-02-26T08:54:42;4.00;;;3.17;;
6111;SDS011;3086;48.802;9.394;2024-02-26T08:58:03;3.43;;;2.90;;
6111;SDS011;3086;48.802;9.394;2024-02-26T09:01:25;5.27;;;3.70;;
6111;SDS011;3086;48.802;9.394;2024-02-26T09:04:47;4.20;;;3.30;;
6111;SDS011;3086;48.802;9.394;2024-02-26T09:08:10;3.17;;;2.87;;
6111;SDS011;3086;48.802;9.394;2024-02-26T09:11:31;2.67;;;2.47;;
6111;SDS011;3086;48.802;9.394;2024-02-26T09:14:53;3.10;;;2.83;;
6111;SDS011;3086;48.802;9.394;2024-02-26T09:18:16;4.30;;;2.73;;
6111;SDS011;3086;48.802;9.394;2024-02-26T09:21:39;3.23;;;2.40;;
6111;SDS011;3086;48.802;9.394;2024-02-26T09:25:05;2.60;;;2.40;;
6111;SDS011;3086;48.802;9.394;2024-02-26T09:28:27;4.00;;;2.77;;
6111;SDS011;3086;48.802;9.394;2024-02-26T09:31:51;2.97;;;2.67;;
6111;SDS011;3086;48.802;9.394;2024-02-26T09:35:13;2.90;;;2.50;;
6111;SDS011;3086;48.802;9.394;2024-02-26T09:38:34;2.70;;;2.50;;
6111;SDS011;3086;48.802;9.394;2024-02-26T09:42:01;3.20;;;2.90;;
6111;SDS011;3086;48.802;9.394;2024-02-26T09:45:26;6.77;;;4.50;;
6111;SDS011;3086;48.802;9.394;2024-02-26T09:48:49;3.70;;;3.27;;
6111;SDS011;3086;48.802;9.394;2024-02-26T09:52:11;3.23;;;2.93;;
6111;SDS011;3086;48.802;9.394;2024-02-26T09:55:32;3.43;;;3.10;;
6111;SDS011;3086;48.802;9.394;2024-02-26T09:58:55;3.70;;;3.00;;
6111;SDS011;3086;48.802;9.394;2024-02-26T10:02:18;4.40;;;3.70;;
6111;SDS011;3086;48.802;9.394;2024-02-26T10:05:40;6.07;;;3.77;;
6111;SDS011;3086;48.802;9.394;2024-02-26T10:09:02;4.23;;;3.80;;
6111;SDS011;3086;48.802;9.394;2024-02-26T10:12:27;4.23;;;3.00;;
6111;SDS011;3086;48.802;9.394;2024-02-26T10:15:52;7.10;;;3.67;;
6111;SDS011;3086;48.802;9.394;2024-02-26T10:19:24;4.97;;;3.17;;
6111;SDS011;3086;48.802;9.394;2024-02-26T10:22:46;5.30;;;3.27;;
6111;SDS011;3086;48.802;9.394;2024-02-26T10:26:08;3.60;;;3.00;;
6111;SDS011;3086;48.802;9.394;2024-02-26T10:29:31;4.10;;;3.00;;
6111;SDS011;3086;48.802;9.394;2024-02-26T10:32:55;3.40;;;3.10;;
6111;SDS011;3086;48.802;9.394;2024-02-26T10:36:17;5.00;;;3.50;;
6111;SDS011;3086;48.802;9.394;2024-02-26T10:39:38;3.43;;;3.13;;
6111;SDS011;3086;48.802;9.394;2024-02-26T10:43:02;3.30;;;3.00;;
6111;SDS011;3086;48.802;9.394;2024-02-26T10:46:25;3.30;;;2.87;;
6111;SDS011;3086;48.802;9.394;2024-02-26T10:49:48;3.03;;;2.73;;
6111;SDS011;3086;48.802;9.394;2024-02-26T10:53:13;3.17;;;2.70;;
6111;SDS011;3086;48.802;9.394;2024-02-26T10:56:36;3.20;;;2.60;;
6111;SDS011;3086;48.802;9.394;2024-02-26T10:59:59;5.23;;;3.23;;
6111;SDS011;3086;48.802;9.394;2024-02-26T11:03:21;3.40;;;3.10;;
6111;SDS011;3086;48.802;9.394;2024-02-26T11:06:45;2.50;;;2.30;;
6111;SDS011;3086;48.802;9.394;2024-02-26T11:10:07;3.77;;;2.50;;
6111;SDS011;3086;48.802;9.394;2024-02-26T11:13:31;4.93;;;2.90;;
6111;SDS011;3086;48.802;9.394;2024-02-26T11:16:54;2.53;;;2.33;;
6111;SDS011;3086;48.802;9.394;2024-02-26T11:20:15;2.70;;;2.50;;
6111;SDS011;3086;48.802;9.394;2024-02-26T11:23:38;2.60;;;2.40;;
6111;SDS011;3086;48.802;9.394;2024-02-26T11:27:01;2.30;;;2.10;;
6111;SDS011;3086;48.802;9.394;2024-02-26T11:30:23;2.40;;;2.20;;
6111;SDS011;3086;48.802;9.394;2024-02-26T11:33:46;2.30;;;2.10;;
6111;SDS011;3086;48.802;9.394;2024-02-26T11:37:08;3.50;;;2.10;;
6111;SDS011;3086;48.802;9.394;2024-02-26T11:40:32;4.10;;;2.30;;
6111;SDS011;3086;48.802;9.394;2024-02-26T11:43:57;1.90;;;1.80;;
6111;SDS011;3086;48.802;9.394;2024-02-26T11:47:21;2.67;;;2.13;;
6111;SDS011;3086;48.802;9.394;2024-02-26T11:50:45;1.90;;;1.80;;
6111;SDS011;3086;48.802;9.394;2024-02-26T11:54:08;2.17;;;1.97;;
6111;SDS011;3086;48.802;9.394;2024-02-26T11:57:37;2.20;;;2.00;;
6111;SDS011;3086;48.802;9.394;2024-02-26T12:00:59;2.30;;;2.10;;
6111;SDS011;3086;48.802;9.394;2024-02-26T12:04:22;2.50;;;2.30;;
6111;SDS011;3086;48.802;9.394;2024-02-26T12:07:47;1.83;;;1.73;;
6111;SDS011;3086;48.802;9.394;2024-02-26T12:11:14;2.10;;;2.00;;
6111;SDS011;3086;48.802;9.394;2024-02-26T12:14:39;2.40;;;2.20;;
6111;SDS011;3086;48.802;9.394;2024-02-26T12:18:01;2.00;;;1.90;;
6111;SDS011;3086;48.802;9.394;2024-02-26T12:21:23;2.30;;;2.10;;
6111;SDS011;3086;48.802;9.394;2024-02-26T12:24:45;2.50;;;2.27;;
6111;SDS011;3086;48.802;9.394;2024-02-26T12:28:07;2.10;;;2.00;;
6111;SDS011;3086;48.802;9.394;2024-02-26T12:31:29;1.80;;;1.70;;
6111;SDS011;3086;48.802;9.394;2024-02-26T12:34:51;1.60;;;1.50;;
6111;SDS011;3086;48.802;9.394;2024-02-26T12:38:13;1.80;;;1.70;;
6111;SDS011;3086;48.802;9.394;2024-02-26T12:41:35;2.07;;;1.90;;
6111;SDS011;3086;48.802;9.394;2024-02-26T12:44:57;1.63;;;1.53;;
6111;SDS011;3086;48.802;9.394;2024-02-26T12:48:20;1.87;;;1.77;;
6111;SDS011;3086;48.802;9.394;2024-02-26T12:51:41;2.10;;;2.00;;
6111;SDS011;3086;48.802;9.394;2024-02-26T12:55:03;2.10;;;2.00;;
6111;SDS011;3086;48.802;9.394;2024-02-26T12:58:25;3.10;;;2.17;;
6111;SDS011;3086;48.802;9.394;2024-02-26T13:01:48;6.83;;;2.20;;
6111;SDS011;3086;48.802;9.394;2024-02-26T13:05:11;2.40;;;2.20;;
6111;SDS011;3086;48.802;9.394;2024-02-26T13:08:34;2.20;;;2.00;;
6111;SDS011;3086;48.802;9.394;2024-02-26T13:11:56;3.20;;;1.90;;
6111;SDS011;3086;48.802;9.394;2024-02-26T13:15:18;2.20;;;2.00;;
6111;SDS011;3086;48.802;9.394;2024-02-26T13:18:40;2.03;;;1.83;;
6111;SDS011;3086;48.802;9.394;2024-02-26T13:22:04;2.43;;;2.23;;
6111;SDS011;3086;48.802;9.394;2024-02-26T13:25:27;3.43;;;2.67;;
6111;SDS011;3086;48.802;9.394;2024-02-26T13:28:58;4.40;;;2.80;;
6111;SDS011;3086;48.802;9.394;2024-02-26T13:32:20;3.00;;;2.57;;
6111;SDS011;3086;48.802;9.394;2024-02-26T13:35:42;3.20;;;2.90;;
6111;SDS011;3086;48.802;9.394;2024-02-26T13:39:05;4.27;;;3.23;;
6111;SDS011;3086;48.802;9.394;2024-02-26T13:42:26;3.53;;;2.53;;
6111;SDS011;3086;48.802;9.394;2024-02-26T13:45:49;3.63;;;2.80;;
6111;SDS011;3086;48.802;9.394;2024-02-26T13:49:10;3.97;;;2.93;;
6111;SDS011;3086;48.802;9.394;2024-02-26T13:52:32;5.27;;;2.67;;
6111;SDS011;3086;48.802;9.394;2024-02-26T13:55:55;3.37;;;2.57;;
6111;SDS011;3086;48.802;9.394;2024-02-26T13:59:18;4.40;;;2.40;;
6111;SDS011;3086;48.802;9.394;2024-02-26T14:02:40;3.23;;;2.00;;
6111;SDS011;3086;48.802;9.394;2024-02-26T14:06:01;1.93;;;1.83;;
6111;SDS011;3086;48.802;9.394;2024-02-26T14:09:23;6.53;;;2.20;;
6111;SDS011;3086;48.802;9.394;2024-02-26T14:12:46;2.43;;;2.23;;
6111;SDS011;3086;48.802;9.394;2024-02-26T14:16:07;2.43;;;2.23;;
6111;SDS011;3086;48.802;9.394;2024-02-26T14:19:30;5.90;;;2.20;;
6111;SDS011;3086;48.802;9.394;2024-02-26T14:22:52;2.50;;;2.30;;
6111;SDS011;3086;48.802;9.394;2024-02-26T14:26:18;2.70;;;2.33;;
6111;SDS011;3086;48.802;9.394;2024-02-26T14:29:41;2.50;;;2.30;;
6111;SDS011;3086;48.802;9.394;2024-02-26T14:33:03;2.20;;;2.00;;
6111;SDS011;3086;48.802;9.394;2024-02-26T14:36:25;1.97;;;1.87;;
6111;SDS011;3086;48.802;9.394;2024-02-26T14:39:46;2.23;;;2.00;;
6111;SDS011;3086;48.802;9.394;2024-02-26T14:43:09;2.30;;;2.10;;
6111;SDS011;3086;48.802;9.394;2024-02-26T14:46:33;2.07;;;1.80;;
6111;SDS011;3086;48.802;9.394;2024-02-26T14:49:55;2.40;;;2.20;;
6111;SDS011;3086;48.802;9.394;2024-02-26T14:53:16;2.20;;;2.00;;
6111;SDS011;3086;48.802;9.394;2024-02-26T14:56:38;2.10;;;2.00;;
6111;SDS011;3086;48.802;9.394;2024-02-26T15:00:00;2.50;;;2.30;;
6111;SDS011;3086;48.802;9.394;2024-02-26T15:03:23;2.43;;;2.23;;
6111;SDS011;3086;48.802;9.394;2024-02-26T15:06:45;2.70;;;2.50;;
6111;SDS011;3086;48.802;9.394;2024-02-26T15:10:07;2.30;;;2.10;;
6111;SDS011;3086;48.802;9.394;2024-02-26T15:13:29;2.47;;;2.27;;
6111;SDS011;3086;48.802;9.394;2024-02-26T15:16:50;3.17;;;2.60;;
6111;SDS011;3086;48.802;9.394;2024-02-26T15:20:14;3.53;;;2.83;;
6111;SDS011;3086;48.802;9.394;2024-02-26T15:23:35;2.73;;;2.23;;
6111;SDS011;3086;48.802;9.394;2024-02-26T15:26:57;3.33;;;2.90;;
6111;SDS011;3086;48.802;9.394;2024-02-26T15:30:18;2.60;;;2.40;;
6111;SDS011;3086;48.802;9.394;2024-02-26T15:33:40;3.40;;;3.03;;
6111;SDS011;3086;48.802;9.394;2024-02-26T15:37:03;3.40;;;2.57;;
6111;SDS011;3086;48.802;9.394;2024-02-26T15:40:25;5.13;;;2.60;;
6111;SDS011;3086;48.802;9.394;2024-02-26T15:43:46;2.40;;;2.20;;
6111;SDS011;3086;48.802;9.394;2024-02-26T15:47:08;2.73;;;2.30;;
6111;SDS011;3086;48.802;9.394;2024-02-26T15:50:29;2.93;;;2.67;;
6111;SDS011;3086;48.802;9.394;2024-02-26T15:53:52;2.67;;;2.47;;
6111;SDS011;3086;48.802;9.394;2024-02-26T15:57:14;2.50;;;2.30;;
6111;SDS011;3086;48.802;9.394;2024-02-26T16:00:40;3.83;;;2.83;;
6111;SDS011;3086;48.802;9.394;2024-02-26T16:04:02;5.60;;;2.97;;
6111;SDS011;3086;48.802;9.394;2024-02-26T16:07:24;4.33;;;3.20;;
6111;SDS011;3086;48.802;9.394;2024-02-26T16:10:50;3.67;;;2.90;;
6111;SDS011;3086;48.802;9.394;2024-02-26T16:14:13;4.93;;;3.00;;
6111;SDS011;3086;48.802;9.394;2024-02-26T16:17:40;4.33;;;2.77;;
6111;SDS011;3086;48.802;9.394;2024-02-26T16:21:06;3.40;;;3.10;;
6111;SDS011;3086;48.802;9.394;2024-02-26T16:24:28;4.57;;;2.70;;
6111;SDS011;3086;48.802;9.394;2024-02-26T16:27:51;4.07;;;3.30;;
6111;SDS011;3086;48.802;9.394;2024-02-26T16:31:12;3.40;;;2.40;;
6111;SDS011;3086;48.802;9.394;2024-02-26T16:34:34;2.80;;;2.60;;
6111;SDS011;3086;48.802;9.394;2024-02-26T16:37:55;4.17;;;2.50;;
6111;SDS011;3086;48.802;9.394;2024-02-26T16:41:17;3.00;;;2.70;;
6111;SDS011;3086;48.802;9.394;2024-02-26T16:44:40;3.40;;;2.60;;
6111;SDS011;3086;48.802;9.394;2024-02-26T16:48:01;3.00;;;2.47;;
6111;SDS011;3086;48.802;9.394;2024-02-26T16:51:24;3.00;;;2.60;;
6111;SDS011;3086;48.802;9.394;2024-02-26T16:54:45;4.23;;;3.37;;
6111;SDS011;3086;48.802;9.394;2024-02-26T16:58:07;2.93;;;2.37;;
6111;SDS011;3086;48.802;9.394;2024-02-26T17:01:31;3.10;;;2.80;;
6111;SDS011;3086;48.802;9.394;2024-02-26T17:04:52;2.80;;;2.60;;
6111;SDS011;3086;48.802;9.394;2024-02-26T17:08:14;4.73;;;2.97;;
6111;SDS011;3086;48.802;9.394;2024-02-26T17:11:35;6.67;;;2.90;;
6111;SDS011;3086;48.802;9.394;2024-02-26T17:14:58;3.93;;;3.00;;
6111;SDS011;3086;48.802;9.394;2024-02-26T17:18:21;4.90;;;3.30;;
6111;SDS011;3086;48.802;9.394;2024-02-26T17:21:42;3.43;;;2.90;;
6111;SDS011;3086;48.802;9.394;2024-02-26T17:25:04;4.57;;;3.40;;
6111;SDS011;3086;48.802;9.394;2024-02-26T17:28:26;3.33;;;3.03;;
6111;SDS011;3086;48.802;9.394;2024-02-26T17:31:48;3.73;;;3.10;;
6111;SDS011;3086;48.802;9.394;2024-02-26T17:35:11;3.80;;;3.07;;
6111;SDS011;3086;48.802;9.394;2024-02-26T17:38:35;3.50;;;3.20;;
6111;SDS011;3086;48.802;9.394;2024-02-26T17:41:56;7.70;;;3.47;;
6111;SDS011;3086;48.802;9.394;2024-02-26T17:45:18;4.07;;;3.47;;
6111;SDS011;3086;48.802;9.394;2024-02-26T17:48:41;5.57;;;3.87;;
6111;SDS011;3086;48.802;9.394;2024-02-26T17:52:05;5.10;;;3.60;;
6111;SDS011;3086;48.802;9.394;2024-02-26T17:55:26;10.27;;;3.87;;
6111;SDS011;3086;48.802;9.394;2024-02-26T17:58:48;3.70;;;3.33;;
6111;SDS011;3086;48.802;9.394;2024-02-26T18:02:09;4.10;;;3.50;;
6111;SDS011;3086;48.802;9.394;2024-02-26T18:05:31;6.30;;;3.43;;
6111;SDS011;3086;48.802;9.394;2024-02-26T18:08:54;4.07;;;3.73;;
6111;SDS011;3086;48.802;9.394;2024-02-26T18:12:15;3.87;;;3.03;;
6111;SDS011;3086;48.802;9.394;2024-02-26T18:15:37;4.43;;;3.67;;
6111;SDS011;3086;48.802;9.394;2024-02-26T18:18:58;4.17;;;3.43;;
6111;SDS011;3086;48.802;9.394;2024-02-26T18:22:20;5.90;;;3.40;;
6111;SDS011;3086;48.802;9.394;2024-02-26T18:25:43;4.97;;;3.77;;
6111;SDS011;3086;48.802;9.394;2024-02-26T18:29:05;4.37;;;3.63;;
6111;SDS011;3086;48.802;9.394;2024-02-26T18:32:26;5.23;;;3.83;;
6111;SDS011;3086;48.802;9.394;2024-02-26T18:35:48;5.30;;;3.50;;
6111;SDS011;3086;48.802;9.394;2024-02-26T18:39:09;4.23;;;3.17;;
6111;SDS011;3086;48.802;9.394;2024-02-26T18:42:32;4.63;;;3.60;;
6111;SDS011;3086;48.802;9.394;2024-02-26T18:45:55;5.50;;;3.73;;
6111;SDS011;3086;48.802;9.394;2024-02-26T18:49:18;4.17;;;3.60;;
6111;SDS011;3086;48.802;9.394;2024-02-26T18:52:40;4.90;;;3.67;;
6111;SDS011;3086;48.802;9.394;2024-02-26T18:56:01;5.60;;;4.10;;
6111;SDS011;3086;48.802;9.394;2024-02-26T18:59:24;4.33;;;3.73;;
6111;SDS011;3086;48.802;9.394;2024-02-26T19:02:46;6.73;;;4.60;;
6111;SDS011;3086;48.802;9.394;2024-02-26T19:06:08;6.20;;;4.57;;
6111;SDS011;3086;48.802;9.394;2024-02-26T19:09:30;5.10;;;3.73;;
6111;SDS011;3086;48.802;9.394;2024-02-26T19:12:51;5.77;;;3.67;;
6111;SDS011;3086;48.802;9.394;2024-02-26T19:16:14;5.50;;;3.93;;
6111;SDS011;3086;48.802;9.394;2024-02-26T19:19:36;4.57;;;4.17;;
6111;SDS011;3086;48.802;9.394;2024-02-26T19:22:58;7.70;;;4.40;;
6111;SDS011;3086;48.802;9.394;2024-02-26T19:26:20;5.90;;;5.30;;
6111;SDS011;3086;48.802;9.394;2024-02-26T19:29:41;4.13;;;3.73;;
6111;SDS011;3086;48.802;9.394;2024-02-26T19:33:04;5.37;;;4.00;;
6111;SDS011;3086;48.802;9.394;2024-02-26T19:36:26;6.60;;;4.30;;
6111;SDS011;3086;48.802;9.394;2024-02-26T19:39:47;5.50;;;4.87;;
6111;SDS011;3086;48.802;9.394;2024-02-26T19:43:09;6.23;;;4.90;;
6111;SDS011;3086;48.802;9.394;2024-02-26T19:46:30;7.37;;;3.90;;
6111;SDS011;3086;48.802;9.394;2024-02-26T19:49:54;4.67;;;3.63;;
6111;SDS011;3086;48.802;9.394;2024-02-26T19:53:15;6.50;;;4.10;;
6111;SDS011;3086;48.802;9.394;2024-02-26T19:56:37;3.90;;;3.53;;
6111;SDS011;3086;48.802;9.394;2024-02-26T19:59:58;6.73;;;3.13;;
6111;SDS011;3086;48.802;9.394;2024-02-26T20:03:20;4.57;;;3.60;;
6111;SDS011;3086;48.802;9.394;2024-02-26T20:06:43;4.17;;;3.77;;
6111;SDS011;3086;48.802;9.394;2024-02-26T20:10:04;4.20;;;3.80;;
6111;SDS011;3086;48.802;9.394;2024-02-26T20:13:27;4.63;;;3.73;;
6111;SDS011;3086;48.802;9.394;2024-02-26T20:16:49;5.40;;;3.80;;
6111;SDS011;3086;48.802;9.394;2024-02-26T20:20:11;3.73;;;3.20;;
6111;SDS011;3086;48.802;9.394;2024-02-26T20:23:34;4.20;;;3.30;;
6111;SDS011;3086;48.802;9.394;2024-02-26T20:26:56;5.27;;;3.50;;
6111;SDS011;3086;48.802;9.394;2024-02-26T20:30:17;5.70;;;4.20;;
6111;SDS011;3086;48.802;9.394;2024-02-26T20:33:39;5.60;;;3.70;;
6111;SDS011;3086;48.802;9.394;2024-02-26T20:37:03;4.53;;;4.00;;
6111;SDS011;3086;48.802;9.394;2024-02-26T20:40:25;4.80;;;4.30;;
6111;SDS011;3086;48.802;9.394;2024-02-26T20:43:47;5.23;;;3.70;;
6111;SDS011;3086;48.802;9.394;2024-02-26T20:47:08;5.37;;;4.40;;
6111;SDS011;3086;48.802;9.394;2024-02-26T20:50:30;5.33;;;3.00;;
6111;SDS011;3086;48.802;9.394;2024-02-26T20:53:52;4.27;;;3.80;;
6111;SDS011;3086;48.802;9.394;2024-02-26T20:57:15;7.17;;;4.10;;